Time;durP1;ratioP1;P1;durP2;ratioP2;P2;SDS_P1;SDS_P2;PMS_P1;PMS_P2;Temp;Humidity;BMP_temperature;BMP_pressure;BME280_temperature;BME280_humidity;BME280_pressure;Samples;Min_cycle;Max_cycle;Signal;HPM_P1;HPM_P2
2021/08/14 00:01:37;;;;;;;7.05;5.45;;;;;;;28.24;42.63;100456.00;4943112;29;20074;-82
2021/08/14 00:04:04;;;;;;;24.35;5.75;;;;;;;28.32;42.18;100447.81;4954762;28;20498;-82
2021/08/14 00:06:30;;;;;;;6.25;5.22;;;;;;;28.10;42.45;100448.78;4940084;29;20098;-82
2021/08/14 00:08:57;;;;;;;5.07;4.38;;;;;;;28.04;42.89;100455.72;4957270;29;20049;-82
2021/08/14 00:11:24;;;;;;;9.93;5.35;;;;;;;28.07;42.88;100447.31;4957057;29;20078;-83
2021/08/14 00:13:51;;;;;;;5.57;5.07;;;;;;;28.11;43.02;100445.91;4940205;29;20043;-82
2021/08/14 00:16:17;;;;;;;7.88;4.57;;;;;;;28.08;43.14;100445.47;4956829;29;20406;-82
2021/08/14 00:18:44;;;;;;;5.85;4.15;;;;;;;28.04;43.12;100450.34;4956969;29;20043;-82
2021/08/14 00:21:11;;;;;;;6.50;4.88;;;;;;;28.22;42.37;100446.47;4956606;28;20505;-81
2021/08/14 00:23:38;;;;;;;9.18;5.10;;;;;;;28.10;42.78;100438.91;4956970;29;20051;-83
2021/08/14 00:26:05;;;;;;;9.27;4.35;;;;;;;28.06;43.13;100442.94;4956607;29;20399;-81
2021/08/14 00:28:31;;;;;;;10.43;5.70;;;;;;;28.05;42.89;100441.28;4956965;28;20043;-81
2021/08/14 00:30:58;;;;;;;9.20;5.72;;;;;;;28.08;43.03;100448.97;4956469;28;20490;-81
2021/08/14 00:33:25;;;;;;;9.48;5.10;;;;;;;28.22;43.10;100446.47;4956797;29;20043;-81
2021/08/14 00:35:52;;;;;;;10.57;4.40;;;;;;;28.00;43.68;100443.69;4956687;29;20486;-81
2021/08/14 00:38:19;;;;;;;10.57;4.65;;;;;;;27.83;44.02;100443.06;4956678;28;20061;-81
2021/08/14 00:40:46;;;;;;;11.15;6.10;;;;;;;27.69;44.57;100441.97;4956572;29;20075;-84
2021/08/14 00:43:12;;;;;;;7.68;4.70;;;;;;;27.69;44.29;100435.81;4956346;29;20043;-83
2021/08/14 00:45:40;;;;;;;11.43;5.35;;;;;;;27.62;44.56;100429.53;4939107;29;20566;-81
2021/08/14 00:48:27;;;;;;;8.35;5.18;;;;;;;27.42;45.42;100445.28;4956242;29;20071;-81
2021/08/14 00:50:54;;;;;;;8.63;5.00;;;;;;;27.35;45.99;100444.34;4956419;29;20052;-82
2021/08/14 00:53:21;;;;;;;9.27;5.28;;;;;;;27.20;46.22;100446.97;4955991;29;20098;-82
2021/08/14 00:55:48;;;;;;;5.90;4.97;;;;;;;27.14;46.60;100443.16;4956354;29;20810;-82
2021/08/14 00:58:15;;;;;;;13.88;5.07;;;;;;;27.21;46.71;100443.28;4956268;29;20043;-82
2021/08/14 01:00:43;;;;;;;8.93;5.50;;;;;;;27.09;46.90;100442.03;4956327;29;20055;-82
2021/08/14 01:03:10;;;;;;;8.93;5.50;;;;;;;26.93;47.45;100440.28;4956141;29;20051;-82
2021/08/14 01:05:39;;;;;;;7.57;5.93;;;;;;;26.92;47.89;100449.34;4956172;29;20067;-82
2021/08/14 01:08:06;;;;;;;9.15;5.45;;;;;;;26.87;47.32;100449.03;4956127;29;20446;-82
2021/08/14 01:10:34;;;;;;;7.97;5.60;;;;;;;26.77;48.13;100445.75;4955908;29;20047;-82
2021/08/14 01:13:00;;;;;;;9.57;5.55;;;;;;;26.80;47.90;100445.41;4956273;29;20459;-81
2021/08/14 01:15:28;;;;;;;6.90;5.88;;;;;;;26.76;48.03;100454.78;4955989;28;20043;-82
2021/08/14 01:17:57;;;;;;;10.60;5.57;;;;;;;26.91;47.75;100450.34;4956216;29;20054;-83
2021/08/14 01:20:24;;;;;;;16.35;5.78;;;;;;;26.80;47.94;100448.09;4955888;28;20043;-82
2021/08/14 01:22:51;;;;;;;9.32;5.32;;;;;;;26.63;49.22;100450.84;4954457;29;20039;-82
2021/08/14 01:25:19;;;;;;;8.65;5.97;;;;;;;26.39;50.02;100442.94;4955772;29;20804;-82
2021/08/14 01:27:46;;;;;;;11.18;4.72;;;;;;;26.31;50.24;100446.47;4955620;29;20039;-82
2021/08/14 01:30:14;;;;;;;6.93;4.72;;;;;;;26.36;49.90;100444.09;4955539;29;20074;-82
2021/08/14 01:32:41;;;;;;;6.15;5.57;;;;;;;26.29;49.37;100444.97;4955569;29;20403;-82
2021/08/14 01:35:08;;;;;;;6.90;5.45;;;;;;;26.02;50.08;100447.06;4955747;29;20047;-82
2021/08/14 01:37:35;;;;;;;8.45;4.85;;;;;;;25.96;50.17;100447.75;4955296;28;20470;-82
2021/08/14 01:40:03;;;;;;;6.18;4.65;;;;;;;26.03;50.19;100453.25;4955853;29;20426;-82
2021/08/14 01:42:29;;;;;;;8.07;4.90;;;;;;;25.69;51.46;100445.47;4955144;29;20573;-83
2021/08/14 01:44:56;;;;;;;12.77;5.70;;;;;;;25.52;51.43;100445.50;4955639;29;20098;-83
2021/08/14 01:47:23;;;;;;;6.82;5.72;;;;;;;25.69;51.06;100445.47;4955395;29;20039;-83
2021/08/14 01:49:50;;;;;;;9.93;5.80;;;;;;;25.61;51.01;100444.47;4955238;29;20102;-83
2021/08/14 01:52:17;;;;;;;6.22;4.85;;;;;;;25.76;50.57;100441.97;4955036;29;20427;-83
2021/08/14 01:54:46;;;;;;;7.00;5.05;;;;;;;25.70;51.06;100439.13;4955444;28;20438;-83
2021/08/14 01:57:16;;;;;;;9.52;5.43;;;;;;;25.74;50.96;100438.66;4955259;29;20458;-83
2021/08/14 01:59:43;;;;;;;6.47;5.88;;;;;;;25.72;50.96;100440.59;4954759;29;20066;-83
2021/08/14 02:02:10;;;;;;;5.90;5.28;;;;;;;25.78;51.13;100437.31;4937948;28;20066;-83
2021/08/14 02:04:37;;;;;;;13.63;6.82;;;;;;;25.82;50.59;100443.13;4954936;29;20043;-82
2021/08/14 02:07:04;;;;;;;11.75;5.80;;;;;;;25.59;51.27;100437.63;4955330;29;20039;-85
2021/08/14 02:09:31;;;;;;;6.38;5.13;;;;;;;25.62;51.16;100439.97;4955161;29;20051;-84
2021/08/14 02:11:57;;;;;;;4.95;4.47;;;;;;;25.81;50.68;100436.13;4955318;29;20051;-84
2021/08/14 02:14:24;;;;;;;8.93;4.93;;;;;;;25.69;50.47;100435.63;4954486;29;20078;-82
2021/08/14 02:16:51;;;;;;;9.75;6.03;;;;;;;25.72;50.23;100439.78;4969336;28;20059;-81
2021/08/14 02:19:18;;;;;;;8.68;5.70;;;;;;;25.64;50.27;100443.31;4954538;29;20127;-80
2021/08/14 02:21:44;;;;;;;6.82;5.80;;;;;;;25.74;50.24;100432.44;4955065;29;20039;-80
2021/08/14 02:24:11;;;;;;;7.78;5.60;;;;;;;25.85;49.60;100432.94;4937866;29;20036;-81
2021/08/14 02:26:38;;;;;;;5.85;5.35;;;;;;;25.93;49.23;100431.25;4954264;28;20074;-81
2021/08/14 02:29:04;;;;;;;8.55;5.65;;;;;;;26.01;49.18;100429.38;4954811;29;20040;-82
2021/08/14 02:31:31;;;;;;;7.85;5.80;;;;;;;26.10;48.80;100430.22;4954511;29;20055;-82
2021/08/14 02:33:58;;;;;;;8.63;4.63;;;;;;;26.33;47.84;100433.75;4954584;29;20062;-82
2021/08/14 02:36:25;;;;;;;7.93;5.65;;;;;;;26.22;47.87;100431.47;4954197;29;20517;-83
2021/08/14 02:38:52;;;;;;;10.23;5.78;;;;;;;26.31;47.59;100435.78;4954568;28;20039;-81
2021/08/14 02:41:18;;;;;;;6.70;5.47;;;;;;;26.53;46.96;100438.72;4954160;29;20130;-82
2021/08/14 02:43:45;;;;;;;28.13;6.03;;;;;;;26.32;47.41;100436.63;4954497;28;20063;-82
2021/08/14 02:46:12;;;;;;;5.78;5.25;;;;;;;26.37;47.55;100434.25;4954062;28;20375;-82
2021/08/14 02:48:38;;;;;;;9.70;5.18;;;;;;;26.29;47.66;100442.31;4954549;29;20043;-82
2021/08/14 02:51:05;;;;;;;7.18;6.03;;;;;;;26.10;48.21;100433.72;4954351;29;20505;-81
2021/08/14 02:53:32;;;;;;;7.15;5.35;;;;;;;26.07;48.25;100439.38;4954233;28;20047;-83
2021/08/14 02:55:59;;;;;;;7.30;5.38;;;;;;;25.66;49.60;100451.13;4954493;29;20142;-82
2021/08/14 02:58:27;;;;;;;8.07;5.40;;;;;;;25.77;49.59;100443.63;4954102;29;20050;-83
2021/08/14 03:00:54;;;;;;;8.00;5.10;;;;;;;25.62;49.96;100439.97;4954038;29;20047;-83
2021/08/14 03:03:21;;;;;;;7.55;5.35;;;;;;;25.61;49.91;100439.13;4953898;29;20058;-83
2021/08/14 03:05:48;;;;;;;6.57;5.35;;;;;;;25.61;50.08;100432.94;4954156;29;20509;-82
2021/08/14 03:08:15;;;;;;;6.45;4.85;;;;;;;25.78;49.33;100439.13;4968724;28;20458;-82
2021/08/14 03:10:42;;;;;;;8.85;5.72;;;;;;;25.68;49.63;100438.47;4954247;29;20506;-83
2021/08/14 03:13:12;;;;;;;6.25;5.50;;;;;;;25.75;49.03;100440.31;4954081;29;20098;-82
2021/08/14 03:15:39;;;;;;;10.27;5.28;;;;;;;25.94;48.35;100439.09;4954490;29;20043;-83
2021/08/14 03:18:06;;;;;;;6.68;5.30;;;;;;;26.09;47.36;100434.69;4954142;29;20078;-82
2021/08/14 03:20:33;;;;;;;8.88;5.75;;;;;;;26.18;47.24;100432.00;4954084;28;20043;-82
2021/08/14 03:23:00;;;;;;;11.45;6.25;;;;;;;25.96;48.47;100431.75;4954260;29;20466;-81
2021/08/14 03:25:27;;;;;;;8.63;5.55;;;;;;;25.89;48.28;100430.78;4954194;29;20051;-82
2021/08/14 03:27:54;;;;;;;7.20;5.38;;;;;;;25.97;48.60;100429.91;4954181;29;20094;-82
2021/08/14 03:30:21;;;;;;;9.32;6.03;;;;;;;25.91;48.93;100434.09;4953753;29;20495;-82
2021/08/14 03:32:47;;;;;;;7.45;5.15;;;;;;;25.81;48.62;100428.09;4953945;29;20055;-83
2021/08/14 03:35:15;;;;;;;9.45;6.07;;;;;;;25.88;48.74;100429.09;4954011;29;20048;-83
2021/08/14 03:37:42;;;;;;;9.73;5.18;;;;;;;26.19;48.02;100439.00;4954106;28;20071;-83
2021/08/14 03:40:11;;;;;;;7.05;6.38;;;;;;;26.20;47.17;100438.00;4956919;28;20051;-83
2021/08/14 03:42:38;;;;;;;8.48;5.60;;;;;;;26.27;46.53;100439.81;4958006;29;20051;-83
2021/08/14 03:45:05;;;;;;;13.07;5.90;;;;;;;26.31;46.50;100440.28;4957948;29;20031;-82
2021/08/14 03:47:32;;;;;;;9.23;5.55;;;;;;;26.48;46.08;100439.25;4957678;29;20098;-83
2021/08/14 03:49:59;;;;;;;7.35;5.20;;;;;;;26.54;46.18;100435.88;4957471;29;20430;-83
2021/08/14 03:52:25;;;;;;;11.98;6.18;;;;;;;26.50;46.23;100436.38;4957381;29;20391;-82
2021/08/14 03:54:52;;;;;;;5.68;5.18;;;;;;;26.43;46.16;100433.59;4957742;28;20086;-83
2021/08/14 03:57:19;;;;;;;9.02;5.25;;;;;;;26.43;46.51;100436.25;4957220;29;20098;-83
2021/08/14 03:59:46;;;;;;;9.07;5.55;;;;;;;26.32;46.60;100431.28;4956054;29;20043;-82
2021/08/14 04:02:12;;;;;;;8.40;5.15;;;;;;;26.40;46.70;100439.25;4957157;29;20411;-84
2021/08/14 04:04:39;;;;;;;7.97;5.20;;;;;;;26.31;46.85;100441.13;4957707;28;20051;-82
2021/08/14 04:07:06;;;;;;;8.90;5.40;;;;;;;26.41;46.16;100446.25;4957221;29;20490;-83
2021/08/14 04:09:33;;;;;;;8.30;5.88;;;;;;;26.43;46.32;100441.59;4957065;29;20098;-84
2021/08/14 04:12:00;;;;;;;6.57;5.88;;;;;;;26.33;46.77;100443.63;4957269;29;20103;-84
2021/08/14 04:14:27;;;;;;;7.50;5.30;;;;;;;26.25;46.65;100449.00;4957142;29;20043;-83
2021/08/14 04:16:54;;;;;;;12.50;5.50;;;;;;;26.32;46.07;100445.47;4957167;29;20040;-83
2021/08/14 04:19:21;;;;;;;5.57;5.07;;;;;;;26.21;46.88;100445.84;4956477;28;20035;-85
2021/08/14 04:21:47;;;;;;;9.93;6.97;;;;;;;26.24;46.45;100448.16;4956928;29;20047;-83
2021/08/14 04:24:14;;;;;;;6.97;5.95;;;;;;;26.29;46.13;100444.97;4956591;29;20347;-83
2021/08/14 04:26:41;;;;;;;12.95;6.72;;;;;;;26.30;46.16;100449.31;4956805;29;20039;-82
2021/08/14 04:29:08;;;;;;;8.13;6.00;;;;;;;26.51;45.68;100452.25;4956742;28;20490;-82
2021/08/14 04:31:35;;;;;;;8.65;5.40;;;;;;;26.48;45.94;100455.28;4956835;28;20051;-84
2021/08/14 04:34:02;;;;;;;11.80;5.85;;;;;;;26.29;46.31;100451.16;4957067;29;20047;-84
2021/08/14 04:36:29;;;;;;;7.10;5.47;;;;;;;26.30;46.62;100454.66;4956492;28;20078;-84
2021/08/14 04:38:56;;;;;;;14.13;6.97;;;;;;;26.41;46.50;100454.25;4956573;28;20043;-83
2021/08/14 04:41:23;;;;;;;15.88;6.38;;;;;;;26.47;46.19;100456.25;4956248;29;20051;-83
2021/08/14 04:43:50;;;;;;;11.15;7.13;;;;;;;26.50;46.28;100450.59;4956609;29;20043;-83
2021/08/14 04:46:16;;;;;;;9.20;5.53;;;;;;;26.50;46.11;100453.25;4956249;29;20454;-83
2021/08/14 04:48:43;;;;;;;12.18;6.03;;;;;;;26.49;46.47;100459.63;4956717;29;20047;-83
2021/08/14 04:51:10;;;;;;;7.25;5.95;;;;;;;26.56;45.94;100446.38;4955796;28;20099;-83
2021/08/14 04:53:36;;;;;;;20.08;6.57;;;;;;;26.58;46.28;100458.56;4956476;28;20043;-80
2021/08/14 04:56:03;;;;;;;9.38;5.07;;;;;;;26.75;45.53;100453.97;4955923;29;20079;-81
2021/08/14 04:58:30;;;;;;;11.48;5.68;;;;;;;26.73;45.70;100460.47;4956260;29;20043;-81
2021/08/14 05:00:57;;;;;;;11.73;5.47;;;;;;;26.73;45.35;100460.47;4956209;29;20043;-81
2021/08/14 05:03:24;;;;;;;7.30;5.15;;;;;;;26.84;45.29;100465.41;4956316;29;20074;-82
2021/08/14 05:05:50;;;;;;;8.50;6.40;;;;;;;26.87;45.74;100454.38;4954940;29;20039;-82
2021/08/14 05:08:17;;;;;;;8.65;5.22;;;;;;;27.02;45.81;100465.16;4955950;29;20043;-82
2021/08/14 05:10:44;;;;;;;14.70;5.50;;;;;;;26.87;46.62;100459.72;4956505;28;20040;-82
2021/08/14 05:13:11;;;;;;;7.20;4.95;;;;;;;26.74;47.59;100467.47;4955941;28;20074;-82
2021/08/14 05:15:37;;;;;;;7.82;5.10;;;;;;;26.76;47.51;100468.16;4955977;29;20052;-82
2021/08/14 05:18:04;;;;;;;14.90;5.78;;;;;;;26.97;47.13;100471.03;4955584;29;20398;-83
2021/08/14 05:20:32;;;;;;;6.78;5.13;;;;;;;27.02;47.02;100471.34;4956178;28;20114;-82
2021/08/14 05:22:59;;;;;;;8.40;6.53;;;;;;;27.21;46.61;100469.22;4955959;29;20058;-83
2021/08/14 05:25:26;;;;;;;11.48;5.30;;;;;;;27.28;46.36;100467.50;4955912;29;20051;-84
2021/08/14 05:27:53;;;;;;;9.80;5.20;;;;;;;27.39;46.43;100470.56;4955442;29;20090;-83
2021/08/14 05:30:19;;;;;;;9.30;5.40;;;;;;;27.53;46.15;100470.78;4955543;29;20039;-84
2021/08/14 05:32:46;;;;;;;10.95;6.13;;;;;;;27.60;45.89;100475.25;4955450;29;20556;-85
2021/08/14 05:35:13;;;;;;;11.90;6.00;;;;;;;27.87;45.94;100464.97;4955544;29;20043;-85
2021/08/14 05:37:40;;;;;;;12.77;6.78;;;;;;;27.76;46.38;100468.91;4955585;28;20043;-83
2021/08/14 05:40:07;;;;;;;13.20;5.65;;;;;;;27.65;47.46;100470.16;4955177;29;20098;-83
2021/08/14 05:42:34;;;;;;;10.50;5.10;;;;;;;27.95;47.01;100464.84;4955817;29;20039;-83
2021/08/14 05:45:01;;;;;;;7.07;5.28;;;;;;;27.92;47.37;100468.75;4955138;28;20066;-82
2021/08/14 05:47:28;;;;;;;10.95;5.68;;;;;;;27.88;46.72;100464.78;4955637;29;20106;-83
2021/08/14 05:49:54;;;;;;;15.57;5.45;;;;;;;28.02;45.91;100463.13;4955070;29;20110;-83
2021/08/14 05:52:23;;;;;;;16.38;6.47;;;;;;;27.91;46.21;100466.22;4955343;29;20059;-84
2021/08/14 05:54:50;;;;;;;8.23;5.38;;;;;;;28.12;44.93;100468.19;4955204;29;20047;-84
2021/08/14 05:57:17;;;;;;;9.68;5.95;;;;;;;28.42;44.57;100475.22;4953278;29;20047;-82
2021/08/14 05:59:44;;;;;;;12.85;6.15;;;;;;;28.52;44.19;100477.59;4953747;29;20063;-83
2021/08/14 06:02:10;;;;;;;6.95;5.40;;;;;;;28.86;43.51;100481.50;4951170;28;20058;-84
2021/08/14 06:04:37;;;;;;;14.13;6.45;;;;;;;29.02;43.73;100480.44;4954840;29;20372;-83
2021/08/14 06:07:04;;;;;;;6.50;5.20;;;;;;;29.09;43.43;100481.38;4954717;29;20090;-82
2021/08/14 06:09:31;;;;;;;7.68;5.60;;;;;;;29.06;43.15;100479.03;4954796;28;20047;-81
2021/08/14 06:11:59;;;;;;;9.90;6.32;;;;;;;29.03;43.43;100484.78;4954898;29;20042;-84
2021/08/14 06:14:26;;;;;;;11.02;6.55;;;;;;;29.19;42.79;100488.06;4954903;29;20483;-83
2021/08/14 06:16:53;;;;;;;8.07;5.90;;;;;;;28.92;43.06;100486.94;4954864;28;20039;-81
2021/08/14 06:19:20;;;;;;;12.10;5.90;;;;;;;28.93;43.12;100479.72;4954886;29;20047;-81
2021/08/14 06:21:47;;;;;;;12.30;6.50;;;;;;;28.95;43.14;100485.75;4954782;29;20046;-81
2021/08/14 06:24:14;;;;;;;10.65;5.53;;;;;;;28.91;42.68;100489.78;4954933;29;20074;-86
2021/08/14 06:26:40;;;;;;;7.85;5.53;;;;;;;28.92;42.54;100486.94;4954905;29;20067;-83
2021/08/14 06:29:07;;;;;;;8.05;5.22;;;;;;;29.13;41.75;100491.50;4954432;29;20398;-89
2021/08/14 06:31:34;;;;;;;10.93;5.55;;;;;;;29.20;42.46;100495.09;4954226;28;20043;-83
2021/08/14 06:34:01;;;;;;;10.35;5.28;;;;;;;29.39;42.34;100504.34;4951101;29;20509;-90
2021/08/14 06:36:27;;;;;;;5.47;4.93;;;;;;;29.25;42.33;100497.22;4952001;29;20047;-89
2021/08/14 06:38:56;;;;;;;10.80;5.88;;;;;;;29.12;43.81;100503.25;4951868;28;20490;-83
2021/08/14 06:41:23;;;;;;;9.35;5.63;;;;;;;29.20;42.84;100499.63;4954919;29;20058;-84
2021/08/14 06:43:49;;;;;;;12.35;6.18;;;;;;;28.98;42.79;100504.16;4954738;29;20039;-83
2021/08/14 06:46:16;;;;;;;9.02;5.95;;;;;;;28.79;42.76;100508.25;4954761;29;20043;-81
2021/08/14 06:48:43;;;;;;;7.72;5.40;;;;;;;28.90;42.63;100504.25;4954389;29;20091;-80
2021/08/14 06:51:16;;;;;;;7.90;6.38;;;;;;;28.70;43.53;100504.84;4953805;28;20063;-81
2021/08/14 06:53:43;;;;;;;8.40;5.75;;;;;;;28.77;43.56;100510.31;4954692;29;20051;-81
2021/08/14 06:56:10;;;;;;;8.48;6.53;;;;;;;28.49;44.27;100502.09;4953578;29;20059;-79
2021/08/14 06:58:36;;;;;;;7.82;5.28;;;;;;;28.58;44.26;100511.72;4954268;28;20039;-80
2021/08/14 07:01:03;;;;;;;10.90;6.07;;;;;;;28.83;43.66;100508.72;4954156;29;20051;-80
2021/08/14 07:03:30;;;;;;;9.75;5.75;;;;;;;29.05;43.33;100513.09;4954513;29;20052;-79
2021/08/14 07:05:57;;;;;;;9.07;6.13;;;;;;;29.05;44.31;100513.09;4954217;28;20083;-80
2021/08/14 07:08:24;;;;;;;10.00;6.03;;;;;;;29.30;43.29;100515.44;4954199;29;20047;-78
2021/08/14 07:10:50;;;;;;;9.18;5.15;;;;;;;29.37;43.47;100514.44;4954523;29;20094;-77
2021/08/14 07:13:17;;;;;;;8.35;5.88;;;;;;;29.25;43.70;100513.31;4955556;28;20055;-80
2021/08/14 07:15:44;;;;;;;10.48;6.32;;;;;;;29.33;43.66;100509.66;4958331;29;20527;-78
2021/08/14 07:18:11;;;;;;;7.32;6.30;;;;;;;29.21;43.64;100509.34;4956426;29;20149;-79
2021/08/14 07:20:38;;;;;;;8.30;6.15;;;;;;;28.90;44.51;100510.44;4956821;28;20122;-79
2021/08/14 07:23:04;;;;;;;9.68;6.03;;;;;;;28.97;44.27;100515.91;4939067;29;20047;-78
2021/08/14 07:25:31;;;;;;;6.70;6.10;;;;;;;29.31;43.89;100515.22;4956028;29;20067;-78
2021/08/14 07:27:58;;;;;;;8.52;6.15;;;;;;;29.45;43.34;100513.47;4957201;28;20047;-79
2021/08/14 07:30:25;;;;;;;8.70;6.68;;;;;;;29.29;44.14;100519.13;4958001;29;20043;-78
2021/08/14 07:32:51;;;;;;;10.68;6.50;;;;;;;29.49;43.33;100512.91;4953202;28;20505;-78
2021/08/14 07:35:19;;;;;;;10.93;5.90;;;;;;;29.50;43.69;100514.56;4953381;29;20051;-77
2021/08/14 07:37:50;;;;;;;6.22;5.60;;;;;;;29.39;43.54;100512.41;4937147;29;20047;-76
2021/08/14 07:40:21;;;;;;;9.68;6.15;;;;;;;29.36;43.51;100515.47;4945618;29;20096;-76
2021/08/14 07:42:48;;;;;;;10.80;5.53;;;;;;;29.49;42.85;100520.13;4953747;29;20048;-76
2021/08/14 07:45:17;;;;;;;10.73;6.43;;;;;;;29.46;43.29;100521.38;4955473;28;20058;-76
2021/08/14 07:47:48;;;;;;;11.13;6.43;;;;;;;29.11;43.17;100522.25;4955222;29;20392;-75
2021/08/14 07:50:23;;;;;;;11.88;5.50;;;;;;;29.30;42.81;100523.47;4951748;28;20184;-76
2021/08/14 07:52:51;;;;;;;9.63;6.25;;;;;;;29.31;43.62;100519.78;4954323;29;20379;-75
2021/08/14 07:55:19;;;;;;;7.82;7.03;;;;;;;29.15;42.75;100519.00;4954246;29;20047;-76
2021/08/14 07:57:46;;;;;;;9.60;5.88;;;;;;;29.30;42.78;100520.78;4955474;29;20474;-75
2021/08/14 08:00:16;;;;;;;10.88;6.22;;;;;;;29.30;42.31;100528.84;4953905;29;20501;-75
2021/08/14 08:02:43;;;;;;;7.47;5.13;;;;;;;29.22;42.43;100525.25;4951564;29;20094;-75
2021/08/14 08:05:12;;;;;;;7.47;6.30;;;;;;;29.34;42.42;100522.06;4949035;29;20043;-75
2021/08/14 08:07:40;;;;;;;6.75;5.43;;;;;;;29.56;42.29;100512.97;4953755;29;20039;-75
2021/08/14 08:10:08;;;;;;;11.43;5.65;;;;;;;29.59;41.70;100517.97;4954526;29;20083;-76
2021/08/14 08:12:35;;;;;;;5.95;5.35;;;;;;;29.50;42.21;100527.97;4951381;29;20044;-75
2021/08/14 08:15:02;;;;;;;9.85;5.63;;;;;;;29.52;41.58;100516.25;4954536;28;20098;-75
2021/08/14 08:17:29;;;;;;;6.75;5.60;;;;;;;29.35;41.70;100515.66;4952883;29;20047;-75
2021/08/14 08:19:56;;;;;;;10.38;5.65;;;;;;;29.54;41.00;100523.09;4954414;28;20267;-75
2021/08/14 08:22:22;;;;;;;7.93;5.07;;;;;;;29.50;41.92;100516.41;4953470;28;20044;-75
2021/08/14 08:24:49;;;;;;;14.57;6.47;;;;;;;29.69;41.68;100505.03;4950529;28;20486;-75
2021/08/14 08:27:16;;;;;;;9.75;5.88;;;;;;;29.76;41.95;100510.47;4953653;28;20043;-78
2021/08/14 08:29:42;;;;;;;11.55;6.40;;;;;;;29.71;41.92;100510.22;4951162;29;20042;-78
2021/08/14 08:32:09;;;;;;;9.60;5.40;;;;;;;29.77;41.67;100508.59;4933968;29;20068;-77
2021/08/14 08:34:36;;;;;;;6.65;5.70;;;;;;;29.69;41.20;100513.09;4954080;29;20047;-77
2021/08/14 08:37:03;;;;;;;15.35;6.80;;;;;;;29.55;41.67;100518.56;4951096;29;20044;-78
2021/08/14 08:39:32;;;;;;;7.13;5.28;;;;;;;29.72;40.98;100512.72;4952833;28;20053;-80
2021/08/14 08:41:59;;;;;;;5.43;5.03;;;;;;;29.70;41.34;100506.69;4954041;29;20043;-78
2021/08/14 08:44:26;;;;;;;7.28;5.50;;;;;;;29.73;41.83;100514.38;4953664;29;20039;-76
2021/08/14 08:46:53;;;;;;;10.88;6.30;;;;;;;29.77;40.98;100520.16;4952067;29;20130;-79
2021/08/14 08:49:21;;;;;;;8.57;6.03;;;;;;;29.85;41.33;100508.47;4953701;28;20094;-82
2021/08/14 08:51:48;;;;;;;6.78;5.18;;;;;;;29.90;41.06;100506.03;4953654;29;20052;-84
2021/08/14 08:54:17;;;;;;;7.05;5.35;;;;;;;29.81;40.84;100509.88;4954557;29;20047;-82
2021/08/14 08:56:44;;;;;;;7.45;6.10;;;;;;;29.67;40.14;100515.16;4950248;29;20115;-82
2021/08/14 08:59:11;;;;;;;10.52;5.90;;;;;;;29.91;40.56;100510.38;4954304;29;20110;-82
2021/08/14 09:01:40;;;;;;;8.43;5.32;;;;;;;29.95;40.76;100508.94;4949759;29;20048;-84
2021/08/14 09:04:25;;;;;;;10.52;6.78;;;;;;;29.83;42.20;100502.44;4951703;29;20051;-95
2021/08/14 09:06:54;;;;;;;7.55;5.90;;;;;;;29.88;42.16;100506.22;4950192;29;20446;-85
2021/08/14 09:09:31;;;;;;;9.93;5.97;;;;;;;29.90;42.16;100504.16;4950823;29;20107;-87
2021/08/14 09:12:05;;;;;;;8.55;5.70;;;;;;;30.03;41.64;100503.41;4947370;28;20513;-84
2021/08/14 09:14:49;;;;;;;6.70;5.85;;;;;;;30.11;41.43;100495.19;4946685;28;20517;-83
2021/08/14 09:17:16;;;;;;;7.72;5.50;;;;;;;30.24;41.78;100491.75;4941853;29;20043;-80
2021/08/14 09:19:42;;;;;;;6.50;5.90;;;;;;;30.08;41.87;100506.34;4944133;28;20104;-79
2021/08/14 09:22:20;;;;;;;15.82;7.03;;;;;;;30.32;41.75;100494.31;4949089;28;20039;-78
2021/08/14 09:24:47;;;;;;;6.25;5.65;;;;;;;30.41;41.38;100501.16;4948779;29;20048;-80
2021/08/14 09:27:16;;;;;;;8.70;5.75;;;;;;;30.24;41.63;100492.59;4951574;29;20343;-82
2021/08/14 09:29:46;;;;;;;6.10;5.50;;;;;;;30.21;41.59;100492.19;4949110;29;20051;-83
2021/08/14 09:32:15;;;;;;;12.48;6.80;;;;;;;30.05;42.33;100492.47;4952692;29;20454;-83
2021/08/14 09:34:46;;;;;;;8.70;6.20;;;;;;;30.15;42.48;100485.75;4953168;29;20039;-82
2021/08/14 09:37:15;;;;;;;7.10;6.40;;;;;;;30.28;42.06;100484.97;4952660;28;20043;-83
2021/08/14 09:40:02;;;;;;;10.77;6.47;;;;;;;30.35;41.87;100479.63;4953722;28;20039;-83
2021/08/14 09:42:29;;;;;;;11.15;5.95;;;;;;;30.66;41.67;100479.94;4953255;29;20114;-82
2021/08/14 09:45:13;;;;;;;8.32;5.45;;;;;;;30.61;41.47;100468.97;4968528;28;20063;-82
2021/08/14 09:47:41;;;;;;;16.10;5.90;;;;;;;30.53;41.11;100479.91;4953911;29;20039;-83
2021/08/14 09:50:10;;;;;;;9.13;6.00;;;;;;;30.57;41.41;100470.38;4950359;28;20043;-82
2021/08/14 09:52:38;;;;;;;10.10;6.35;;;;;;;30.87;41.00;100462.84;4946407;29;20043;-85
2021/08/14 09:55:05;;;;;;;13.38;6.57;;;;;;;30.85;40.06;100469.47;4953455;29;20046;-82
2021/08/14 09:57:32;;;;;;;10.32;6.10;;;;;;;30.77;40.70;100465.94;4953073;28;20044;-80
2021/08/14 10:00:01;;;;;;;6.78;6.18;;;;;;;30.67;40.77;100457.38;4936058;29;20483;-80
2021/08/14 10:02:40;;;;;;;8.90;5.45;;;;;;;31.02;40.68;100460.00;4952757;29;20054;-84
2021/08/14 10:05:11;;;;;;;10.68;7.90;;;;;;;30.86;40.47;100461.19;4952332;29;20035;-81
2021/08/14 10:07:38;;;;;;;11.77;5.00;;;;;;;30.96;40.77;100447.34;4943705;29;20048;-84
2021/08/14 10:10:05;;;;;;;6.78;4.80;;;;;;;30.82;41.29;100451.03;4950479;29;20510;-84
2021/08/14 10:12:32;;;;;;;9.18;5.50;;;;;;;30.98;40.50;100440.72;4951910;29;20098;-85
2021/08/14 10:14:59;;;;;;;8.15;5.60;;;;;;;31.12;40.04;100440.75;4953501;29;20039;-81
2021/08/14 10:17:30;;;;;;;10.02;6.10;;;;;;;31.23;40.09;100443.63;4950306;29;20048;-82
2021/08/14 10:19:58;;;;;;;7.85;5.43;;;;;;;31.16;40.68;100436.56;4951222;29;20079;-82
2021/08/14 10:22:27;;;;;;;8.85;5.82;;;;;;;31.20;40.45;100435.97;4945690;29;20486;-81
2021/08/14 10:25:00;;;;;;;6.30;5.70;;;;;;;31.45;39.61;100425.44;4944609;29;20644;-84
2021/08/14 10:27:26;;;;;;;9.68;6.43;;;;;;;31.28;39.96;100430.41;4945160;29;20047;-84
2021/08/14 10:30:00;;;;;;;6.80;6.13;;;;;;;31.47;39.43;100426.03;4947256;29;20498;-82
2021/08/14 10:32:29;;;;;;;9.50;5.35;;;;;;;31.27;40.50;100425.25;4948747;29;20035;-87
2021/08/14 10:35:17;;;;;;;14.57;6.90;;;;;;;31.52;39.35;100420.03;4962119;28;20043;-86
2021/08/14 10:37:45;;;;;;;9.32;6.15;;;;;;;31.47;38.84;100422.50;4950037;28;20479;-89
2021/08/14 10:40:14;;;;;;;7.60;6.22;;;;;;;31.62;38.97;100425.00;4948789;29;20402;-82
2021/08/14 10:42:47;;;;;;;12.10;6.15;;;;;;;31.51;39.17;100419.19;4948630;29;20384;-76
2021/08/14 10:45:16;;;;;;;7.05;6.45;;;;;;;31.65;38.28;100420.00;4946761;29;20047;-79
2021/08/14 10:47:45;;;;;;;6.07;5.40;;;;;;;31.69;37.83;100413.16;4948540;28;20066;-81
2021/08/14 10:50:52;;;;;;;7.43;5.22;;;;;;;31.67;38.28;100407.16;4950025;28;20409;-78
2021/08/14 10:53:22;;;;;;;7.25;5.30;;;;;;;31.45;39.47;100413.81;4947490;28;20127;-82
2021/08/14 10:55:57;;;;;;;6.82;4.78;;;;;;;31.60;38.45;100409.03;4949746;29;20103;-82
2021/08/14 10:58:29;;;;;;;6.10;5.18;;;;;;;31.63;37.69;100403.22;4950248;29;20098;-84
2021/08/14 11:01:02;;;;;;;8.75;4.60;;;;;;;31.54;38.31;100401.81;4946723;29;20454;-82
2021/08/14 11:03:39;;;;;;;5.70;5.10;;;;;;;31.73;37.67;100394.69;4951588;29;20114;-81
2021/08/14 11:06:27;;;;;;;10.05;5.57;;;;;;;31.91;36.40;100392.19;4950889;29;20044;-81
2021/08/14 11:09:17;;;;;;;6.70;6.03;;;;;;;31.90;36.53;100389.69;4949352;28;20047;-80
2021/08/14 11:11:59;;;;;;;5.93;5.32;;;;;;;31.88;36.59;100398.00;4950025;29;20134;-80
2021/08/14 11:14:48;;;;;;;10.65;5.45;;;;;;;32.13;36.51;100389.22;4950291;29;20516;-80
2021/08/14 11:17:16;;;;;;;15.13;5.60;;;;;;;31.77;38.06;100383.28;4950562;29;20051;-77
2021/08/14 11:19:45;;;;;;;8.65;5.53;;;;;;;31.80;37.93;100372.13;4951606;28;20095;-81
2021/08/14 11:22:30;;;;;;;11.77;5.65;;;;;;;32.15;36.41;100385.25;4949709;29;20070;-81
2021/08/14 11:25:04;;;;;;;9.50;5.60;;;;;;;32.22;36.07;100371.72;4951019;29;20043;-82
2021/08/14 11:27:33;;;;;;;10.80;5.70;;;;;;;32.14;35.84;100370.13;4948709;29;20451;-82